sensor_id;sensor_type;location;lat;lon;timestamp;pressure;altitude;pressure_sealevel;temperature;humidity
43804;BME280;29430;52.924;-2.388;2022-09-29T00:01:41;97603.94;;;10.38;93.20
43804;BME280;29430;52.924;-2.388;2022-09-29T00:06:32;97597.44;;;10.45;93.11
43804;BME280;29430;52.924;-2.388;2022-09-29T00:11:24;97595.81;;;10.49;93.86
43804;BME280;29430;52.924;-2.388;2022-09-29T00:16:16;97591.19;;;10.54;94.23
43804;BME280;29430;52.924;-2.388;2022-09-29T00:21:13;97591.19;;;10.60;94.42
43804;BME280;29430;52.924;-2.388;2022-09-29T00:26:09;97600.97;;;10.66;94.88
43804;BME280;29430;52.924;-2.388;2022-09-29T00:31:02;97599.34;;;10.65;95.35
43804;BME280;29430;52.924;-2.388;2022-09-29T00:35:56;97609.66;;;10.68;95.99
43804;BME280;29430;52.924;-2.388;2022-09-29T00:40:49;97599.63;;;10.68;96.29
43804;BME280;29430;52.924;-2.388;2022-09-29T00:45:41;97609.94;;;10.66;96.43
43804;BME280;29430;52.924;-2.388;2022-09-29T00:50:40;97618.06;;;10.66;97.11
43804;BME280;29430;52.924;-2.388;2022-09-29T00:55:35;97616.94;;;10.67;97.53
43804;BME280;29430;52.924;-2.388;2022-09-29T01:00:29;97614.25;;;10.62;97.09
43804;BME280;29430;52.924;-2.388;2022-09-29T01:05:44;97612.88;;;10.60;98.06
43804;BME280;29430;52.924;-2.388;2022-09-29T01:10:38;97621.31;;;10.63;98.80
43804;BME280;29430;52.924;-2.388;2022-09-29T01:15:31;97633.50;;;10.71;96.89
43804;BME280;29430;52.924;-2.388;2022-09-29T01:20:23;97635.13;;;10.72;97.34
43804;BME280;29430;52.924;-2.388;2022-09-29T01:46:20;97637.84;;;10.67;98.69
43804;BME280;29430;52.924;-2.388;2022-09-29T01:51:16;97641.63;;;10.66;98.64
43804;BME280;29430;52.924;-2.388;2022-09-29T01:56:15;97647.03;;;10.66;98.54
43804;BME280;29430;52.924;-2.388;2022-09-29T02:01:10;97646.78;;;10.67;98.34
43804;BME280;29430;52.924;-2.388;2022-09-29T02:06:08;97653.03;;;10.68;98.79
43804;BME280;29430;52.924;-2.388;2022-09-29T02:11:12;97654.38;;;10.65;99.04
43804;BME280;29430;52.924;-2.388;2022-09-29T02:16:04;97659.25;;;10.63;99.08
43804;BME280;29430;52.924;-2.388;2022-09-29T02:21:00;97666.84;;;10.61;99.33
43804;BME280;29430;52.924;-2.388;2022-09-29T02:25:53;97668.47;;;10.57;99.73
43804;BME280;29430;52.924;-2.388;2022-09-29T02:30:48;97671.44;;;10.55;99.96
43804;BME280;29430;52.924;-2.388;2022-09-29T02:36:08;97668.19;;;10.59;99.50
43804;BME280;29430;52.924;-2.388;2022-09-29T02:41:22;97671.44;;;10.61;99.25
43804;BME280;29430;52.924;-2.388;2022-09-29T02:51:26;97674.97;;;10.56;98.55
43804;BME280;29430;52.924;-2.388;2022-09-29T02:56:40;97685.81;;;10.56;98.40
43804;BME280;29430;52.924;-2.388;2022-09-29T03:01:52;97670.06;;;10.53;98.34
43804;BME280;29430;52.924;-2.388;2022-09-29T03:06:44;97679.59;;;10.50;98.24
43804;BME280;29430;52.924;-2.388;2022-09-29T03:11:35;97676.56;;;10.47;97.97
43804;BME280;29430;52.924;-2.388;2022-09-29T03:16:27;97687.16;;;10.48;97.63
43804;BME280;29430;52.924;-2.388;2022-09-29T03:21:19;97689.59;;;10.45;97.58
43804;BME280;29430;52.924;-2.388;2022-09-29T03:26:11;97708.56;;;10.39;96.57
43804;BME280;29430;52.924;-2.388;2022-09-29T03:31:07;97692.56;;;10.38;97.68
43804;BME280;29430;52.924;-2.388;2022-09-29T03:36:00;97701.50;;;10.38;97.45
43804;BME280;29430;52.924;-2.388;2022-09-29T03:40:52;97715.56;;;10.35;97.05
43804;BME280;29430;52.924;-2.388;2022-09-29T03:45:51;97707.94;;;10.32;96.45
43804;BME280;29430;52.924;-2.388;2022-09-29T03:50:47;97704.44;;;10.32;96.64
43804;BME280;29430;52.924;-2.388;2022-09-29T03:55:39;97712.81;;;10.30;96.80
43804;BME280;29430;52.924;-2.388;2022-09-29T04:00:31;97715.22;;;10.27;96.20
43804;BME280;29430;52.924;-2.388;2022-09-29T04:05:23;97720.38;;;10.23;96.57
43804;BME280;29430;52.924;-2.388;2022-09-29T04:10:15;97723.63;;;10.20;97.05
43804;BME280;29430;52.924;-2.388;2022-09-29T04:15:07;97712.50;;;10.16;97.02
43804;BME280;29430;52.924;-2.388;2022-09-29T04:19:59;97726.31;;;10.20;97.27
43804;BME280;29430;52.924;-2.388;2022-09-29T04:24:51;97729.28;;;10.13;96.75
43804;BME280;29430;52.924;-2.388;2022-09-29T04:29:43;97730.88;;;10.14;96.47
43804;BME280;29430;52.924;-2.388;2022-09-29T04:34:35;97741.72;;;10.09;95.84
43804;BME280;29430;52.924;-2.388;2022-09-29T04:39:27;97747.91;;;10.04;96.28
43804;BME280;29430;52.924;-2.388;2022-09-29T04:44:18;97748.16;;;9.98;95.99
43804;BME280;29430;52.924;-2.388;2022-09-29T04:49:15;97758.16;;;9.92;95.92
43804;BME280;29430;52.924;-2.388;2022-09-29T04:54:07;97770.56;;;9.88;96.32
43804;BME280;29430;52.924;-2.388;2022-09-29T04:58:59;97760.53;;;9.83;96.29
43804;BME280;29430;52.924;-2.388;2022-09-29T05:03:51;97780.56;;;9.82;95.99
43804;BME280;29430;52.924;-2.388;2022-09-29T05:08:42;97776.47;;;9.80;95.97
43804;BME280;29430;52.924;-2.388;2022-09-29T05:13:35;97784.00;;;9.73;95.38
43804;BME280;29430;52.924;-2.388;2022-09-29T05:18:27;97788.06;;;9.70;95.84
43804;BME280;29430;52.924;-2.388;2022-09-29T05:23:19;97789.13;;;9.69;96.02
43804;BME280;29430;52.924;-2.388;2022-09-29T05:28:11;97804.56;;;9.68;96.79
43804;BME280;29430;52.924;-2.388;2022-09-29T05:33:05;97807.00;;;9.70;96.29
43804;BME280;29430;52.924;-2.388;2022-09-29T05:37:57;97817.25;;;9.68;96.19
43804;BME280;29430;52.924;-2.388;2022-09-29T05:42:50;97814.28;;;9.64;96.04
43804;BME280;29430;52.924;-2.388;2022-09-29T05:47:42;97823.97;;;9.60;96.29
43804;BME280;29430;52.924;-2.388;2022-09-29T05:52:34;97834.00;;;9.60;97.08
43804;BME280;29430;52.924;-2.388;2022-09-29T05:57:26;97840.47;;;9.59;97.07
43804;BME280;29430;52.924;-2.388;2022-09-29T06:02:18;97842.38;;;9.58;97.49
43804;BME280;29430;52.924;-2.388;2022-09-29T06:07:10;97856.44;;;9.60;97.02
43804;BME280;29430;52.924;-2.388;2022-09-29T06:12:02;97857.53;;;9.59;96.92
43804;BME280;29430;52.924;-2.388;2022-09-29T06:16:54;97867.00;;;9.57;97.57
43804;BME280;29430;52.924;-2.388;2022-09-29T06:21:46;97877.56;;;9.58;97.56
43804;BME280;29430;52.924;-2.388;2022-09-29T06:26:38;97874.59;;;9.60;97.77
43804;BME280;29430;52.924;-2.388;2022-09-29T06:31:30;97872.69;;;9.60;97.23
43804;BME280;29430;52.924;-2.388;2022-09-29T06:36:33;97883.78;;;9.59;97.57
43804;BME280;29430;52.924;-2.388;2022-09-29T06:41:44;97875.91;;;9.57;97.17
43804;BME280;29430;52.924;-2.388;2022-09-29T06:46:42;97874.59;;;9.60;97.16
43804;BME280;29430;52.924;-2.388;2022-09-29T06:51:34;97883.00;;;9.63;97.53
43804;BME280;29430;52.924;-2.388;2022-09-29T06:56:36;97899.00;;;9.65;96.49
43804;BME280;29430;52.924;-2.388;2022-09-29T07:01:28;97909.91;;;9.75;97.54
43804;BME280;29430;52.924;-2.388;2022-09-29T07:06:20;97923.34;;;9.92;97.21
43804;BME280;29430;52.924;-2.388;2022-09-29T07:11:12;97929.66;;;10.03;96.32
43804;BME280;29430;52.924;-2.388;2022-09-29T07:16:11;97938.13;;;10.12;96.25
43804;BME280;29430;52.924;-2.388;2022-09-29T07:21:05;97942.47;;;10.13;94.94
43804;BME280;29430;52.924;-2.388;2022-09-29T07:25:57;97939.19;;;10.11;94.52
43804;BME280;29430;52.924;-2.388;2022-09-29T07:31:00;97952.19;;;10.09;94.85
43804;BME280;29430;52.924;-2.388;2022-09-29T07:36:04;97958.41;;;10.09;95.04
43804;BME280;29430;52.924;-2.388;2022-09-29T07:41:00;97969.53;;;10.13;94.96
43804;BME280;29430;52.924;-2.388;2022-09-29T07:45:52;97969.91;;;10.21;95.25
43804;BME280;29430;52.924;-2.388;2022-09-29T07:50:44;97988.25;;;10.42;94.92
43804;BME280;29430;52.924;-2.388;2022-09-29T07:55:37;97991.03;;;10.52;93.47
43804;BME280;29430;52.924;-2.388;2022-09-29T08:00:29;97986.56;;;10.73;95.59
43804;BME280;29430;52.924;-2.388;2022-09-29T08:05:21;98004.59;;;11.63;96.39
43804;BME280;29430;52.924;-2.388;2022-09-29T08:10:13;98010.72;;;12.63;92.17
43804;BME280;29430;52.924;-2.388;2022-09-29T08:15:08;98023.28;;;13.65;87.11
43804;BME280;29430;52.924;-2.388;2022-09-29T08:20:00;98041.16;;;14.31;82.51
43804;BME280;29430;52.924;-2.388;2022-09-29T08:24:51;98032.75;;;14.92;80.86
43804;BME280;29430;52.924;-2.388;2022-09-29T08:29:43;98049.63;;;14.99;73.53
43804;BME280;29430;52.924;-2.388;2022-09-29T08:34:37;98061.25;;;15.10;74.77
43804;BME280;29430;52.924;-2.388;2022-09-29T08:39:29;98063.28;;;15.52;73.98
43804;BME280;29430;52.924;-2.388;2022-09-29T08:44:43;98061.22;;;16.06;72.39
43804;BME280;29430;52.924;-2.388;2022-09-29T08:49:47;98074.97;;;16.58;69.65
43804;BME280;29430;52.924;-2.388;2022-09-29T08:54:41;98087.63;;;16.73;69.12
43804;BME280;29430;52.924;-2.388;2022-09-29T08:59:39;98088.88;;;16.81;68.74
43804;BME280;29430;52.924;-2.388;2022-09-29T09:14:58;98108.09;;;16.19;66.93
43804;BME280;29430;52.924;-2.388;2022-09-29T09:25:18;98116.56;;;15.79;69.08
43804;BME280;29430;52.924;-2.388;2022-09-29T09:30:15;98133.34;;;15.38;69.60
43804;BME280;29430;52.924;-2.388;2022-09-29T09:35:42;98146.69;;;15.45;72.77
43804;BME280;29430;52.924;-2.388;2022-09-29T09:40:50;98152.63;;;16.24;71.23
43804;BME280;29430;52.924;-2.388;2022-09-29T09:45:56;98155.84;;;17.08;68.73
43804;BME280;29430;52.924;-2.388;2022-09-29T09:50:50;98163.59;;;17.20;64.51
43804;BME280;29430;52.924;-2.388;2022-09-29T09:55:45;98162.94;;;17.09;63.51
43804;BME280;29430;52.924;-2.388;2022-09-29T10:00:47;98166.94;;;16.78;65.90
43804;BME280;29430;52.924;-2.388;2022-09-29T10:05:43;98171.88;;;16.38;64.42
43804;BME280;29430;52.924;-2.388;2022-09-29T10:10:35;98188.31;;;16.14;65.71
43804;BME280;29430;52.924;-2.388;2022-09-29T10:15:52;98188.19;;;16.24;63.96
43804;BME280;29430;52.924;-2.388;2022-09-29T10:20:45;98195.13;;;16.17;64.79
43804;BME280;29430;52.924;-2.388;2022-09-29T10:25:37;98198.06;;;16.01;65.44
43804;BME280;29430;52.924;-2.388;2022-09-29T10:30:34;98201.25;;;15.84;65.63
43804;BME280;29430;52.924;-2.388;2022-09-29T10:35:39;98214.09;;;15.84;68.15
43804;BME280;29430;52.924;-2.388;2022-09-29T10:40:32;98217.94;;;15.83;67.16
43804;BME280;29430;52.924;-2.388;2022-09-29T10:45:28;98220.28;;;15.65;68.20
43804;BME280;29430;52.924;-2.388;2022-09-29T10:50:35;98228.63;;;15.50;69.25
43804;BME280;29430;52.924;-2.388;2022-09-29T10:55:30;98238.16;;;15.52;68.10
43804;BME280;29430;52.924;-2.388;2022-09-29T11:00:33;98236.53;;;15.51;68.38
43804;BME280;29430;52.924;-2.388;2022-09-29T11:05:26;98240.56;;;15.59;68.97
43804;BME280;29430;52.924;-2.388;2022-09-29T11:10:36;98243.66;;;15.76;68.62
43804;BME280;29430;52.924;-2.388;2022-09-29T11:15:38;98242.53;;;15.83;67.89
43804;BME280;29430;52.924;-2.388;2022-09-29T11:20:33;98247.78;;;16.03;65.62
43804;BME280;29430;52.924;-2.388;2022-09-29T11:56:41;98282.22;;;16.58;61.46
43804;BME280;29430;52.924;-2.388;2022-09-29T12:07:12;98305.31;;;16.46;64.40
43804;BME280;29430;52.924;-2.388;2022-09-29T12:17:15;98300.09;;;16.26;68.07
43804;BME280;29430;52.924;-2.388;2022-09-29T12:22:14;98307.00;;;16.18;68.16
43804;BME280;29430;52.924;-2.388;2022-09-29T12:27:24;98299.66;;;16.14;68.63
43804;BME280;29430;52.924;-2.388;2022-09-29T12:32:21;98298.31;;;16.11;70.16
43804;BME280;29430;52.924;-2.388;2022-09-29T12:37:22;98305.72;;;16.10;69.54
43804;BME280;29430;52.924;-2.388;2022-09-29T12:52:23;98298.72;;;16.23;71.75
43804;BME280;29430;52.924;-2.388;2022-09-29T12:57:24;98309.03;;;16.56;70.80
43804;BME280;29430;52.924;-2.388;2022-09-29T13:28:29;98314.41;;;17.28;66.26
43804;BME280;29430;52.924;-2.388;2022-09-29T13:33:24;98313.84;;;17.12;66.22
43804;BME280;29430;52.924;-2.388;2022-09-29T13:38:19;98329.31;;;17.03;67.86
43804;BME280;29430;52.924;-2.388;2022-09-29T13:48:46;98331.53;;;16.77;68.58
43804;BME280;29430;52.924;-2.388;2022-09-29T13:53:41;98336.59;;;16.64;69.74
43804;BME280;29430;52.924;-2.388;2022-09-29T13:58:35;98330.44;;;16.54;68.52
43804;BME280;29430;52.924;-2.388;2022-09-29T14:08:30;98342.50;;;16.23;70.46
43804;BME280;29430;52.924;-2.388;2022-09-29T14:13:43;98344.16;;;16.24;70.78
43804;BME280;29430;52.924;-2.388;2022-09-29T14:18:40;98344.16;;;16.24;71.89
43804;BME280;29430;52.924;-2.388;2022-09-29T14:24:00;98332.53;;;16.38;73.64
43804;BME280;29430;52.924;-2.388;2022-09-29T14:28:52;98335.97;;;16.49;73.68
43804;BME280;29430;52.924;-2.388;2022-09-29T14:33:43;98333.66;;;16.61;73.59
43804;BME280;29430;52.924;-2.388;2022-09-29T14:38:39;98347.19;;;16.71;72.33
43804;BME280;29430;52.924;-2.388;2022-09-29T14:44:21;98343.94;;;16.69;71.76
43804;BME280;29430;52.924;-2.388;2022-09-29T15:04:17;98359.50;;;16.74;71.64
43804;BME280;29430;52.924;-2.388;2022-09-29T15:09:17;98367.25;;;16.91;69.57
43804;BME280;29430;52.924;-2.388;2022-09-29T15:29:48;98367.53;;;16.65;65.67
43804;BME280;29430;52.924;-2.388;2022-09-29T15:34:40;98381.16;;;16.70;67.49
43804;BME280;29430;52.924;-2.388;2022-09-29T15:44:27;98385.63;;;16.85;65.75
43804;BME280;29430;52.924;-2.388;2022-09-29T15:49:24;98391.94;;;16.86;64.56
43804;BME280;29430;52.924;-2.388;2022-09-29T15:54:15;98397.03;;;16.73;65.62
43804;BME280;29430;52.924;-2.388;2022-09-29T15:59:17;98422.44;;;16.50;67.12
43804;BME280;29430;52.924;-2.388;2022-09-29T16:04:09;98419.94;;;16.24;68.80
43804;BME280;29430;52.924;-2.388;2022-09-29T16:09:04;98431.81;;;16.09;71.11
43804;BME280;29430;52.924;-2.388;2022-09-29T16:14:19;98437.13;;;15.95;72.63
43804;BME280;29430;52.924;-2.388;2022-09-29T16:19:16;98442.69;;;15.80;72.86
43804;BME280;29430;52.924;-2.388;2022-09-29T16:24:12;98456.44;;;15.69;73.24
43804;BME280;29430;52.924;-2.388;2022-09-29T16:34:00;98474.03;;;15.43;74.41
43804;BME280;29430;52.924;-2.388;2022-09-29T16:38:53;98471.09;;;15.34;74.60
43804;BME280;29430;52.924;-2.388;2022-09-29T16:43:46;98473.56;;;15.25;75.94
43804;BME280;29430;52.924;-2.388;2022-09-29T16:48:41;98479.06;;;15.20;76.19
43804;BME280;29430;52.924;-2.388;2022-09-29T16:53:34;98490.28;;;15.18;76.86
43804;BME280;29430;52.924;-2.388;2022-09-29T16:58:27;98502.81;;;15.19;77.33
43804;BME280;29430;52.924;-2.388;2022-09-29T17:03:19;98509.09;;;15.15;77.88
43804;BME280;29430;52.924;-2.388;2022-09-29T17:08:30;98518.69;;;15.12;78.32
43804;BME280;29430;52.924;-2.388;2022-09-29T17:13:28;98528.81;;;15.07;78.58
43804;BME280;29430;52.924;-2.388;2022-09-29T17:18:21;98532.63;;;15.06;78.97
43804;BME280;29430;52.924;-2.388;2022-09-29T17:23:15;98531.84;;;15.00;79.24
43804;BME280;29430;52.924;-2.388;2022-09-29T17:28:15;98537.00;;;14.96;79.48
43804;BME280;29430;52.924;-2.388;2022-09-29T17:33:10;98552.31;;;14.97;79.92
43804;BME280;29430;52.924;-2.388;2022-09-29T17:38:04;98550.69;;;14.91;80.74
43804;BME280;29430;52.924;-2.388;2022-09-29T17:42:59;98550.97;;;14.84;81.13
43804;BME280;29430;52.924;-2.388;2022-09-29T17:47:51;98552.34;;;14.77;81.52
43804;BME280;29430;52.924;-2.388;2022-09-29T17:52:43;98561.34;;;14.72;81.00
43804;BME280;29430;52.924;-2.388;2022-09-29T17:57:35;98561.34;;;14.62;80.61
43804;BME280;29430;52.924;-2.388;2022-09-29T18:02:27;98575.50;;;14.54;79.86
43804;BME280;29430;52.924;-2.388;2022-09-29T18:07:18;98591.59;;;14.45;79.19
43804;BME280;29430;52.924;-2.388;2022-09-29T18:12:10;98584.22;;;14.35;79.03
43804;BME280;29430;52.924;-2.388;2022-09-29T18:17:03;98589.91;;;14.23;79.66
43804;BME280;29430;52.924;-2.388;2022-09-29T18:21:56;98584.69;;;14.11;79.28
43804;BME280;29430;52.924;-2.388;2022-09-29T18:26:48;98575.94;;;13.94;79.87
43804;BME280;29430;52.924;-2.388;2022-09-29T18:31:40;98579.44;;;13.84;79.81
43804;BME280;29430;52.924;-2.388;2022-09-29T18:36:32;98590.28;;;13.69;79.79
43804;BME280;29430;52.924;-2.388;2022-09-29T18:41:24;98591.84;;;13.54;80.41
43804;BME280;29430;52.924;-2.388;2022-09-29T18:46:16;98581.44;;;13.41;80.41
43804;BME280;29430;52.924;-2.388;2022-09-29T18:51:08;98594.41;;;13.29;80.48
43804;BME280;29430;52.924;-2.388;2022-09-29T18:56:04;98582.38;;;13.19;80.77
43804;BME280;29430;52.924;-2.388;2022-09-29T19:00:56;98594.00;;;13.10;80.43
43804;BME280;29430;52.924;-2.388;2022-09-29T19:05:49;98598.53;;;12.94;80.38
43804;BME280;29430;52.924;-2.388;2022-09-29T19:10:47;98602.28;;;12.82;80.88
43804;BME280;29430;52.924;-2.388;2022-09-29T19:15:41;98602.41;;;12.65;81.39
43804;BME280;29430;52.924;-2.388;2022-09-29T19:20:33;98594.91;;;12.50;81.70
43804;BME280;29430;52.924;-2.388;2022-09-29T19:25:25;98604.63;;;12.41;82.07
43804;BME280;29430;52.924;-2.388;2022-09-29T19:30:21;98592.31;;;12.33;82.10
43804;BME280;29430;52.924;-2.388;2022-09-29T19:35:18;98605.22;;;12.21;82.17
43804;BME280;29430;52.924;-2.388;2022-09-29T19:40:14;98652.47;;;12.15;81.94
43804;BME280;29430;52.924;-2.388;2022-09-29T19:45:06;98637.94;;;12.04;82.76
43804;BME280;29430;52.924;-2.388;2022-09-29T19:49:58;98656.56;;;11.95;83.01
43804;BME280;29430;52.924;-2.388;2022-09-29T19:55:08;98664.34;;;11.87;83.13
43804;BME280;29430;52.924;-2.388;2022-09-29T20:00:03;98656.09;;;11.81;83.02
43804;BME280;29430;52.924;-2.388;2022-09-29T20:04:55;98697.28;;;11.73;83.09
43804;BME280;29430;52.924;-2.388;2022-09-29T20:09:48;98709.91;;;11.62;83.18
43804;BME280;29430;52.924;-2.388;2022-09-29T20:14:40;98711.16;;;11.55;83.20
43804;BME280;29430;52.924;-2.388;2022-09-29T20:19:31;98690.44;;;11.49;83.66
43804;BME280;29430;52.924;-2.388;2022-09-29T20:24:23;98686.50;;;11.39;84.18
43804;BME280;29430;52.924;-2.388;2022-09-29T20:29:17;98691.75;;;11.29;84.77
43804;BME280;29430;52.924;-2.388;2022-09-29T20:34:10;98705.00;;;11.25;83.98
43804;BME280;29430;52.924;-2.388;2022-09-29T20:39:02;98697.84;;;11.19;84.45
43804;BME280;29430;52.924;-2.388;2022-09-29T20:43:55;98693.66;;;11.11;84.80
43804;BME280;29430;52.924;-2.388;2022-09-29T20:48:52;98691.38;;;11.03;84.66
43804;BME280;29430;52.924;-2.388;2022-09-29T20:53:53;98690.94;;;10.95;86.06
43804;BME280;29430;52.924;-2.388;2022-09-29T20:58:47;98691.09;;;10.88;86.27
43804;BME280;29430;52.924;-2.388;2022-09-29T21:03:39;98688.03;;;10.84;86.46
43804;BME280;29430;52.924;-2.388;2022-09-29T21:08:31;98687.72;;;10.81;85.71
43804;BME280;29430;52.924;-2.388;2022-09-29T21:13:23;98673.47;;;10.73;86.30
43804;BME280;29430;52.924;-2.388;2022-09-29T21:18:15;98667.91;;;10.63;86.51
43804;BME280;29430;52.924;-2.388;2022-09-29T21:23:06;98662.59;;;10.56;86.59
43804;BME280;29430;52.924;-2.388;2022-09-29T21:27:58;98682.34;;;10.52;86.39
43804;BME280;29430;52.924;-2.388;2022-09-29T21:32:50;98684.94;;;10.47;86.33
43804;BME280;29430;52.924;-2.388;2022-09-29T21:37:42;98689.22;;;10.43;87.33
43804;BME280;29430;52.924;-2.388;2022-09-29T21:42:34;98690.53;;;10.40;87.19
43804;BME280;29430;52.924;-2.388;2022-09-29T21:47:26;98703.50;;;10.38;87.00
43804;BME280;29430;52.924;-2.388;2022-09-29T21:52:38;98709.97;;;10.37;87.18
43804;BME280;29430;52.924;-2.388;2022-09-29T21:57:30;98721.31;;;10.34;86.49
43804;BME280;29430;52.924;-2.388;2022-09-29T22:02:22;98722.00;;;10.29;86.77
43804;BME280;29430;52.924;-2.388;2022-09-29T22:07:14;98729.56;;;10.27;86.95
43804;BME280;29430;52.924;-2.388;2022-09-29T22:12:05;98730.50;;;10.21;86.36
43804;BME280;29430;52.924;-2.388;2022-09-29T22:16:57;98727.34;;;10.12;86.00
43804;BME280;29430;52.924;-2.388;2022-09-29T22:21:49;98735.38;;;10.07;86.44
43804;BME280;29430;52.924;-2.388;2022-09-29T22:26:40;98718.41;;;10.00;87.07
43804;BME280;29430;52.924;-2.388;2022-09-29T22:31:32;98702.88;;;9.95;86.90
43804;BME280;29430;52.924;-2.388;2022-09-29T22:36:26;98682.97;;;9.90;87.44
43804;BME280;29430;52.924;-2.388;2022-09-29T22:41:19;98678.41;;;9.90;90.14
43804;BME280;29430;52.924;-2.388;2022-09-29T22:46:14;98668.22;;;9.97;92.16
43804;BME280;29430;52.924;-2.388;2022-09-29T22:51:06;98658.44;;;10.08;93.20
43804;BME280;29430;52.924;-2.388;2022-09-29T22:55:59;98663.47;;;10.16;93.11
43804;BME280;29430;52.924;-2.388;2022-09-29T23:01:03;98669.81;;;10.22;92.97
43804;BME280;29430;52.924;-2.388;2022-09-29T23:05:57;98661.19;;;10.25;92.20
43804;BME280;29430;52.924;-2.388;2022-09-29T23:10:49;98650.13;;;10.27;92.25
43804;BME280;29430;52.924;-2.388;2022-09-29T23:15:41;98643.31;;;10.24;91.81
43804;BME280;29430;52.924;-2.388;2022-09-29T23:20:33;98653.66;;;10.27;91.77
43804;BME280;29430;52.924;-2.388;2022-09-29T23:25:24;98643.88;;;10.26;91.70
43804;BME280;29430;52.924;-2.388;2022-09-29T23:30:16;98635.66;;;10.21;91.52
43804;BME280;29430;52.924;-2.388;2022-09-29T23:35:08;98633.69;;;10.16;91.22
43804;BME280;29430;52.924;-2.388;2022-09-29T23:40:01;98618.38;;;10.10;91.86
43804;BME280;29430;52.924;-2.388;2022-09-29T23:44:53;98604.47;;;10.07;91.82
43804;BME280;29430;52.924;-2.388;2022-09-29T23:49:44;98600.63;;;10.02;93.20
43804;BME280;29430;52.924;-2.388;2022-09-29T23:54:36;98603.34;;;10.02;93.43
43804;BME280;29430;52.924;-2.388;2022-09-29T23:59:27;98606.06;;;10.02;94.48
